createdAt,value
2022-09-14T00:00:45.726Z,63.25
2022-09-14T00:06:12.533Z,62.89
2022-09-14T00:11:35.582Z,63.09
2022-09-14T00:16:56.419Z,63.78
2022-09-14T00:22:17.399Z,64.67
2022-09-14T00:27:38.130Z,64.71
2022-09-14T00:32:58.971Z,65.21
2022-09-14T00:38:19.544Z,65.66
2022-09-14T00:44:03.405Z,64.13
2022-09-14T00:49:35.914Z,62.94
2022-09-14T00:55:00.298Z,61.06
2022-09-14T01:00:25.374Z,60.42
2022-09-14T01:06:07.818Z,59.78
2022-09-14T01:11:34.386Z,58.75
2022-09-14T01:17:12.507Z,59.00
2022-09-14T01:22:56.393Z,60.29
2022-09-14T01:28:34.397Z,63.85
2022-09-14T01:34:05.422Z,64.73
2022-09-14T01:39:29.331Z,65.39
2022-09-14T01:44:58.972Z,65.43
2022-09-14T01:50:47.155Z,65.13
2022-09-14T01:56:22.207Z,64.78
2022-09-14T02:01:56.260Z,63.87
2022-09-14T02:07:18.713Z,63.58
2022-09-14T02:12:40.784Z,62.29
2022-09-14T02:18:01.380Z,62.18
2022-09-14T02:23:31.411Z,61.90
2022-09-14T02:28:55.971Z,62.67
2022-09-14T02:34:27.712Z,62.42
2022-09-14T02:40:07.360Z,63.09
2022-09-14T02:45:42.217Z,62.67
2022-09-14T02:51:18.239Z,61.61
2022-09-14T02:56:39.043Z,61.57
2022-09-14T03:02:00.737Z,61.61
2022-09-14T03:07:21.245Z,61.55
2022-09-14T03:12:41.657Z,62.40
2022-09-14T03:18:02.131Z,62.32
2022-09-14T03:23:22.507Z,62.91
2022-09-14T03:28:43.935Z,63.78
2022-09-14T03:34:04.928Z,63.14
2022-09-14T03:39:25.433Z,62.63
2022-09-14T03:44:46.361Z,60.52
2022-09-14T03:50:09.648Z,59.98
2022-09-14T03:55:30.287Z,58.41
2022-09-14T04:00:51.178Z,58.05
2022-09-14T04:06:12.499Z,59.47
2022-09-14T04:11:34.757Z,59.18
2022-09-14T04:16:54.984Z,59.28
2022-09-14T04:22:15.295Z,59.44
2022-09-14T04:27:36.160Z,59.04
2022-09-14T04:32:56.278Z,57.85
2022-09-14T04:38:17.256Z,57.42
2022-09-14T04:43:37.860Z,57.64
2022-09-14T04:48:59.159Z,58.55
2022-09-14T04:54:19.600Z,60.45
2022-09-14T04:59:40.225Z,61.46
2022-09-14T05:05:01.055Z,62.67
2022-09-14T05:10:21.741Z,63.25
2022-09-14T05:15:42.645Z,63.42
2022-09-14T05:21:08.420Z,63.41
2022-09-14T05:26:30.956Z,63.38
2022-09-14T05:31:51.740Z,63.16
2022-09-14T05:37:12.907Z,62.48
2022-09-14T05:42:33.644Z,61.43
2022-09-14T05:47:54.373Z,61.15
2022-09-14T05:53:15.343Z,60.30
2022-09-14T05:58:38.687Z,60.96
2022-09-14T06:04:02.322Z,60.68
2022-09-14T06:09:24.381Z,60.79
2022-09-14T06:14:45.084Z,61.55
2022-09-14T06:20:09.506Z,61.62
2022-09-14T06:25:31.107Z,60.84
2022-09-14T06:30:52.155Z,60.27
2022-09-14T06:36:15.124Z,58.39
2022-09-14T06:41:35.357Z,57.34
2022-09-14T06:46:56.146Z,56.48
2022-09-14T06:52:16.704Z,56.82
2022-09-14T06:57:42.077Z,57.51
2022-09-14T07:03:03.766Z,57.80
2022-09-14T07:08:28.429Z,57.23
2022-09-14T07:13:49.857Z,56.77
2022-09-14T07:19:12.833Z,56.43
2022-09-14T07:24:33.357Z,55.90
2022-09-14T07:29:54.204Z,55.66
2022-09-14T07:35:14.654Z,56.01
2022-09-14T07:40:35.571Z,56.16
2022-09-14T07:45:56.312Z,56.22
2022-09-14T07:51:16.697Z,55.85
2022-09-14T07:56:37.299Z,54.86
2022-09-14T08:01:57.760Z,53.19
2022-09-14T08:07:18.268Z,53.21
2022-09-14T08:12:39.161Z,52.93
2022-09-14T08:17:59.572Z,53.16
2022-09-14T08:23:20.326Z,53.94
2022-09-14T08:28:41.389Z,54.54
2022-09-14T08:34:03.686Z,54.72
2022-09-14T08:39:24.179Z,55.44
2022-09-14T08:44:49.448Z,56.80
2022-09-14T08:50:10.157Z,57.85
2022-09-14T08:55:40.342Z,58.08
2022-09-14T09:01:22.644Z,56.93
2022-09-14T09:07:05.612Z,56.48
2022-09-14T09:12:39.595Z,58.67
2022-09-14T09:18:06.371Z,59.20
2022-09-14T09:23:29.780Z,58.53
2022-09-14T09:28:58.401Z,58.06
2022-09-14T09:34:26.663Z,58.29
2022-09-14T09:39:47.102Z,60.17
2022-09-14T09:45:07.596Z,60.41
2022-09-14T09:50:28.048Z,59.62
2022-09-14T09:55:50.901Z,60.83
2022-09-14T10:01:20.314Z,62.04
2022-09-14T10:06:50.499Z,62.83
2022-09-14T10:12:16.625Z,65.15
2022-09-14T10:17:37.534Z,66.82
2022-09-14T10:23:16.326Z,65.66
2022-09-14T10:28:37.099Z,64.75
2022-09-14T10:33:58.053Z,65.56
2022-09-14T10:39:26.449Z,67.33
2022-09-14T10:44:58.435Z,67.32
2022-09-14T10:50:47.220Z,66.63
2022-09-14T10:56:20.495Z,66.03
2022-09-14T11:01:56.267Z,59.58
2022-09-14T11:08:01.713Z,55.76
2022-09-14T11:13:42.147Z,53.03
2022-09-14T11:19:29.223Z,51.91
2022-09-14T11:25:13.336Z,52.67
2022-09-14T11:30:42.216Z,51.15
2022-09-14T11:36:28.773Z,50.72
2022-09-14T11:41:59.669Z,52.32
2022-09-14T11:47:22.257Z,58.89
2022-09-14T11:52:43.118Z,63.67
2022-09-14T11:58:07.331Z,64.34
2022-09-14T12:04:13.722Z,65.05
2022-09-14T12:09:39.817Z,64.16
2022-09-14T12:15:03.815Z,60.89
2022-09-14T12:20:29.014Z,58.82
2022-09-14T12:26:11.551Z,59.40
2022-09-14T12:32:00.347Z,60.19
2022-09-14T12:37:31.597Z,62.42
2022-09-14T12:42:52.551Z,63.99
2022-09-14T12:48:44.635Z,66.40
2022-09-14T12:54:08.253Z,67.65
2022-09-14T12:59:54.508Z,66.76
2022-09-14T13:05:18.509Z,66.04
2022-09-14T13:10:47.662Z,65.71
2022-09-14T13:16:08.932Z,65.55
2022-09-14T13:21:29.825Z,66.21
2022-09-14T13:26:50.723Z,68.37
2022-09-14T13:32:20.297Z,72.29
2022-09-14T13:37:44.106Z,73.20
2022-09-14T13:43:07.177Z,72.59
2022-09-14T13:48:27.960Z,71.54
2022-09-14T13:53:51.725Z,67.17
2022-09-14T13:59:18.142Z,65.53
2022-09-14T14:04:39.546Z,63.41
2022-09-14T14:10:01.924Z,62.70
2022-09-14T14:15:22.713Z,60.62
2022-09-14T14:20:43.474Z,59.51
2022-09-14T14:26:10.043Z,59.44
2022-09-14T14:31:30.645Z,60.90
2022-09-14T14:36:51.815Z,61.61
2022-09-14T14:42:16.249Z,61.65
2022-09-14T14:47:37.329Z,61.00
2022-09-14T14:52:58.593Z,61.69
2022-09-14T14:58:20.511Z,63.02
2022-09-14T15:03:41.188Z,64.81
2022-09-14T15:09:02.072Z,66.72
2022-09-14T15:14:27.178Z,67.94
2022-09-14T15:19:47.913Z,68.48
2022-09-14T15:25:10.850Z,68.48
2022-09-14T15:30:31.255Z,68.50
2022-09-14T15:35:56.416Z,69.16
2022-09-14T15:41:16.833Z,69.09
2022-09-14T15:46:38.953Z,69.46
2022-09-14T15:51:59.736Z,69.88
2022-09-14T15:57:20.421Z,71.29
2022-09-14T16:02:41.657Z,75.34
2022-09-14T16:08:02.578Z,75.23
2022-09-14T16:13:23.526Z,75.46
2022-09-14T16:18:44.152Z,77.44
2022-09-14T16:24:07.699Z,80.10
2022-09-14T16:29:28.452Z,81.79
2022-09-14T16:34:49.169Z,83.03
2022-09-14T16:40:11.934Z,84.26
2022-09-14T16:45:32.391Z,84.74
2022-09-14T16:50:53.505Z,85.42
2022-09-14T16:56:23.312Z,86.18
2022-09-14T17:01:47.095Z,86.14
2022-09-14T17:07:10.064Z,86.28
2022-09-14T17:12:30.727Z,86.11
2022-09-14T17:17:51.407Z,86.18
2022-09-14T17:23:12.088Z,85.98
2022-09-14T17:28:34.822Z,85.17
2022-09-14T17:33:57.548Z,84.39
2022-09-14T17:39:18.218Z,83.94
2022-09-14T17:44:40.978Z,83.33
2022-09-14T17:50:03.362Z,83.22
2022-09-14T17:55:24.701Z,83.47
2022-09-14T18:00:45.925Z,83.74
2022-09-14T18:06:08.997Z,83.51
2022-09-14T18:11:30.037Z,83.34
2022-09-14T18:16:50.564Z,83.12
2022-09-14T18:22:11.061Z,83.19
2022-09-14T18:27:32.411Z,83.13
2022-09-14T18:32:53.033Z,83.03
2022-09-14T18:38:13.787Z,82.93
2022-09-14T18:43:34.621Z,82.62
2022-09-14T18:48:57.670Z,82.51
2022-09-14T18:54:18.373Z,82.25
2022-09-14T18:59:38.992Z,81.59
2022-09-14T19:05:00.390Z,81.47
2022-09-14T19:10:25.388Z,81.17
2022-09-14T19:15:46.123Z,80.87
2022-09-14T19:21:08.792Z,80.24
2022-09-14T19:26:32.843Z,79.45
2022-09-14T19:31:53.590Z,78.07
2022-09-14T19:37:14.532Z,77.37
2022-09-14T19:42:36.171Z,76.29
2022-09-14T19:47:56.419Z,75.49
2022-09-14T19:53:17.121Z,75.04
2022-09-14T19:58:41.877Z,74.47
2022-09-14T20:04:03.684Z,74.37
2022-09-14T20:09:24.245Z,73.72
2022-09-14T20:14:45.336Z,74.20
2022-09-14T20:20:07.248Z,74.17
2022-09-14T20:25:27.863Z,74.06
2022-09-14T20:30:57.922Z,73.61
2022-09-14T20:36:20.363Z,72.79
2022-09-14T20:41:41.117Z,72.07
2022-09-14T20:47:01.691Z,71.74
2022-09-14T20:52:22.204Z,71.63
2022-09-14T20:57:42.819Z,71.42
2022-09-14T21:03:03.363Z,71.76
2022-09-14T21:08:24.330Z,71.77
2022-09-14T21:13:45.984Z,71.78
2022-09-14T21:19:23.143Z,70.39
2022-09-14T21:24:43.524Z,70.36
2022-09-14T21:30:04.561Z,69.80
2022-09-14T21:35:25.106Z,70.24
2022-09-14T21:40:45.805Z,71.30
2022-09-14T21:46:07.617Z,74.08
2022-09-14T21:51:30.830Z,75.58
2022-09-14T21:56:52.596Z,75.93
2022-09-14T22:02:13.203Z,75.53
2022-09-14T22:07:35.384Z,75.27
2022-09-14T22:12:55.838Z,74.96
2022-09-14T22:18:16.708Z,74.64
2022-09-14T22:23:37.588Z,74.40
2022-09-14T22:28:59.237Z,74.05
2022-09-14T22:34:21.262Z,73.63
2022-09-14T22:39:42.049Z,72.47
2022-09-14T22:45:02.504Z,71.19
2022-09-14T22:50:23.099Z,70.60
2022-09-14T22:55:44.806Z,70.29
2022-09-14T23:01:12.337Z,71.24
2022-09-14T23:06:38.639Z,71.30
2022-09-14T23:11:59.122Z,68.76
2022-09-14T23:17:19.926Z,67.54
2022-09-14T23:22:40.324Z,66.96
2022-09-14T23:28:02.185Z,68.28
2022-09-14T23:33:23.058Z,68.95
2022-09-14T23:38:43.614Z,68.59
2022-09-14T23:44:04.655Z,68.87
2022-09-14T23:49:25.688Z,68.50
2022-09-14T23:54:46.237Z,68.73
